Cosco Thailand — VRHM2 — position and weather

sailwx.info

Track history (hours):
 
Tides and Currents Weather Stations Pressure Air Temp Water Temp Dewpoint Dewpoint Depression Visibility Wind Speed Wind Dir Waves Ship Positions

Cosco Thailand

Last reported at 2017-Dec-15 16:23 UTC. Time now 2017-Dec-16 19:10 UTC.
Position N 41°37' E 141°28'.

Length 334 m; draft 13.6 m.

Type: Cargo ship. MMSI: 477959200.

Date/timePositionNaut miles runAvg speedWind from/ knotsBaromVisibWave heightAir tempDewpointWater temp
2017-Dec-15 16:23N 41°37' E 141°28'716.2
2017-Dec-15 15:59N 41°37' E 141°20'816.4
2017-Dec-15 15:30N 41°36' E 141°09'917.8
2017-Dec-15 15:00N 41°37' E 140°58'816.7
2017-Dec-15 14:30N 41°34' E 140°47'816.9
2017-Dec-15 14:00N 41°29' E 140°38'917.3
2017-Dec-15 13:30N 41°24' E 140°28'917.4
2017-Dec-15 13:00N 41°19' E 140°19'  
2017-Dec-12 00:37N 30°36' E 122°05'  
2017-Dec-09 00:37N 23°59' E 118°45'216.2
2017-Dec-09 00:29N 23°58' E 118°43'272 6.3
2017-Dec-07 05:25N 22°19' E 114°07'  
Track history (hours):
 
Tides and Currents Weather Stations Pressure Air Temp Water Temp Dewpoint Dewpoint Depression Visibility Wind Speed Wind Dir Waves Ship Positions

Cosco Thailand

Last reported at 2017-Dec-15 16:23 UTC. Time now 2017-Dec-16 19:10 UTC.
Position N 41°37' E 141°28'.

Length 334 m; draft 13.6 m.

Type: Cargo ship. MMSI: 477959200.

Date/timePositionNaut miles runAvg speedWind from/ knotsBaromVisibWave heightAir tempDewpointWater temp
2017-Dec-15 16:23N 41°37' E 141°28'716.2
2017-Dec-15 15:59N 41°37' E 141°20'816.4
2017-Dec-15 15:30N 41°36' E 141°09'917.8
2017-Dec-15 15:00N 41°37' E 140°58'816.7
2017-Dec-15 14:30N 41°34' E 140°47'816.9
2017-Dec-15 14:00N 41°29' E 140°38'917.3
2017-Dec-15 13:30N 41°24' E 140°28'917.4
2017-Dec-15 13:00N 41°19' E 140°19'  
2017-Dec-12 00:37N 30°36' E 122°05'  
2017-Dec-09 00:37N 23°59' E 118°45'216.2
2017-Dec-09 00:29N 23°58' E 118°43'272 6.3
2017-Dec-07 05:25N 22°19' E 114°07'  

Dump ship's entire track history